createdAt,value
2023-03-17T00:01:51.145Z,3.70
2023-03-17T00:04:24.953Z,3.65
2023-03-17T00:06:52.895Z,3.68
2023-03-17T00:09:20.359Z,3.67
2023-03-17T00:11:47.175Z,3.64
2023-03-17T00:14:14.250Z,3.61
2023-03-17T00:16:51.266Z,3.56
2023-03-17T00:19:37.796Z,3.48
2023-03-17T00:22:06.590Z,3.57
2023-03-17T00:24:33.771Z,3.50
2023-03-17T00:27:00.666Z,3.53
2023-03-17T00:29:27.946Z,3.54
2023-03-17T00:31:56.925Z,3.55
2023-03-17T00:34:23.412Z,3.47
2023-03-17T00:36:51.217Z,3.51
2023-03-17T00:39:18.579Z,3.51
2023-03-17T00:44:11.998Z,3.43
2023-03-17T00:46:39.474Z,3.46
2023-03-17T00:49:22.452Z,3.43
2023-03-17T00:51:49.819Z,3.42
2023-03-17T00:54:17.597Z,3.36
2023-03-17T00:56:45.639Z,3.35
2023-03-17T00:59:21.535Z,3.28
2023-03-17T01:01:49.127Z,3.24
2023-03-17T01:04:15.816Z,3.39
2023-03-17T01:06:43.268Z,3.30
2023-03-17T01:09:14.675Z,3.39
2023-03-17T01:11:42.121Z,3.30
2023-03-17T01:14:10.570Z,3.36
2023-03-17T01:16:37.119Z,3.42
2023-03-17T01:19:07.436Z,3.38
2023-03-17T01:21:33.853Z,3.39
2023-03-17T01:24:00.431Z,3.36
2023-03-17T01:26:27.036Z,3.36
2023-03-17T01:28:53.817Z,3.28
2023-03-17T01:31:20.693Z,3.29
2023-03-17T01:33:47.475Z,3.37
2023-03-17T01:36:14.153Z,3.32
2023-03-17T01:38:40.895Z,3.31
2023-03-17T01:41:07.428Z,3.48
2023-03-17T01:43:33.914Z,3.40
2023-03-17T01:46:20.742Z,3.27
2023-03-17T01:48:55.916Z,3.20
2023-03-17T01:51:38.695Z,3.19
2023-03-17T01:54:10.532Z,3.19
2023-03-17T01:56:40.796Z,3.17
2023-03-17T01:59:13.481Z,3.11
2023-03-17T02:01:47.077Z,3.02
2023-03-17T02:04:14.207Z,2.98
2023-03-17T02:06:55.024Z,3.07
2023-03-17T02:09:23.711Z,3.11
2023-03-17T02:11:50.725Z,3.06
2023-03-17T02:14:17.871Z,2.98
2023-03-17T02:16:45.477Z,2.96
2023-03-17T02:19:12.662Z,3.02
2023-03-17T02:21:55.544Z,2.89
2023-03-17T02:24:57.452Z,2.92
2023-03-17T02:27:35.506Z,3.03
2023-03-17T02:30:03.716Z,3.03
2023-03-17T02:32:30.272Z,3.05
2023-03-17T02:34:57.212Z,3.03
2023-03-17T02:37:23.642Z,3.00
2023-03-17T02:39:50.062Z,2.96
2023-03-17T02:42:16.979Z,2.97
2023-03-17T02:44:43.654Z,3.00
2023-03-17T02:47:10.813Z,2.97
2023-03-17T02:49:40.317Z,3.02
2023-03-17T02:52:08.199Z,2.98
2023-03-17T02:54:34.843Z,3.10
2023-03-17T02:57:01.747Z,3.06
2023-03-17T02:59:28.302Z,3.09
2023-03-17T03:01:56.151Z,3.02
2023-03-17T03:04:23.872Z,2.97
2023-03-17T03:06:50.392Z,2.98
2023-03-17T03:09:17.830Z,2.96
2023-03-17T03:11:44.852Z,2.90
2023-03-17T03:14:11.607Z,2.83
2023-03-17T03:16:38.417Z,2.77
2023-03-17T03:19:11.021Z,2.82
2023-03-17T03:21:37.665Z,2.80
2023-03-17T03:24:05.146Z,2.74
2023-03-17T03:26:31.851Z,2.75
2023-03-17T03:28:59.910Z,2.81
2023-03-17T03:31:26.802Z,2.77
2023-03-17T03:33:53.646Z,2.78
2023-03-17T03:36:20.509Z,2.76
2023-03-17T03:38:46.909Z,2.74
2023-03-17T03:41:13.491Z,2.79
2023-03-17T03:43:39.980Z,2.78
2023-03-17T03:46:06.704Z,2.76
2023-03-17T03:48:33.587Z,2.70
2023-03-17T03:51:02.021Z,2.68
2023-03-17T03:53:29.166Z,2.60
2023-03-17T03:55:56.047Z,2.56
2023-03-17T03:58:22.694Z,2.62
2023-03-17T04:00:49.191Z,2.50
2023-03-17T04:03:16.064Z,2.59
2023-03-17T04:05:42.819Z,2.58
2023-03-17T04:08:09.304Z,2.52
2023-03-17T04:10:35.742Z,2.57
2023-03-17T04:13:02.207Z,2.48
2023-03-17T04:15:28.700Z,2.48
2023-03-17T04:17:55.411Z,2.51
2023-03-17T04:20:22.074Z,2.63
2023-03-17T04:22:48.505Z,2.60
2023-03-17T04:25:15.677Z,2.71
2023-03-17T04:27:42.720Z,2.70
2023-03-17T04:30:13.849Z,2.58
2023-03-17T04:32:40.580Z,2.68
2023-03-17T04:35:09.159Z,2.63
2023-03-17T04:37:35.577Z,2.68
2023-03-17T04:40:02.286Z,2.64
2023-03-17T04:42:28.693Z,2.57
2023-03-17T04:44:55.343Z,2.55
2023-03-17T04:47:21.978Z,2.66
2023-03-17T04:49:48.379Z,2.61
2023-03-17T04:52:14.794Z,2.57
2023-03-17T04:54:42.216Z,2.65
2023-03-17T04:57:09.697Z,2.66
2023-03-17T04:59:36.746Z,2.60
2023-03-17T05:02:03.287Z,2.65
2023-03-17T05:04:32.084Z,2.70
2023-03-17T05:06:58.903Z,2.61
2023-03-17T05:09:27.143Z,2.58
2023-03-17T05:11:53.573Z,2.56
2023-03-17T05:14:20.487Z,2.54
2023-03-17T05:16:48.429Z,2.54
2023-03-17T05:19:15.370Z,2.55
2023-03-17T05:21:42.772Z,2.48
2023-03-17T05:24:09.200Z,2.59
2023-03-17T05:26:36.122Z,2.49
2023-03-17T05:29:02.547Z,2.55
2023-03-17T05:31:29.811Z,2.59
2023-03-17T05:33:56.600Z,2.49
2023-03-17T05:36:23.057Z,2.57
2023-03-17T05:38:49.489Z,2.57
2023-03-17T05:41:16.459Z,2.57
2023-03-17T05:43:42.910Z,2.61
2023-03-17T05:46:09.503Z,2.63
2023-03-17T05:48:36.279Z,2.60
2023-03-17T05:51:03.592Z,2.53
2023-03-17T05:53:31.173Z,2.62
2023-03-17T05:55:57.738Z,2.59
2023-03-17T05:58:24.223Z,2.68
2023-03-17T06:00:51.101Z,2.87
2023-03-17T06:03:17.622Z,2.98
2023-03-17T06:05:44.191Z,2.92
2023-03-17T06:08:10.767Z,2.95
2023-03-17T06:10:37.197Z,3.08
2023-03-17T06:13:04.592Z,3.19
2023-03-17T06:15:31.552Z,3.38
2023-03-17T06:17:59.182Z,3.48
2023-03-17T06:20:25.845Z,3.68
2023-03-17T06:23:03.863Z,3.98
2023-03-17T06:25:32.509Z,4.70
2023-03-17T06:28:01.673Z,5.12
2023-03-17T06:30:28.310Z,5.37
2023-03-17T06:32:55.258Z,5.95
2023-03-17T06:35:22.817Z,6.47
2023-03-17T06:37:49.282Z,6.75
2023-03-17T06:40:16.207Z,7.07
2023-03-17T06:42:42.695Z,6.74
2023-03-17T06:45:10.249Z,7.01
2023-03-17T06:47:37.293Z,6.60
2023-03-17T06:50:05.171Z,6.61
2023-03-17T06:52:31.679Z,6.85
2023-03-17T06:54:58.115Z,7.01
2023-03-17T06:57:24.589Z,7.50
2023-03-17T06:59:51.069Z,7.76
2023-03-17T07:02:17.482Z,7.95
2023-03-17T07:04:47.163Z,8.31
2023-03-17T07:07:13.766Z,9.05
2023-03-17T07:09:40.188Z,9.85
2023-03-17T07:12:06.854Z,9.27
2023-03-17T07:14:36.858Z,10.27
2023-03-17T07:17:04.668Z,9.27
2023-03-17T07:19:31.223Z,10.21
2023-03-17T07:21:57.686Z,10.43
2023-03-17T07:24:25.371Z,10.99
2023-03-17T07:26:52.239Z,10.89
2023-03-17T07:29:18.694Z,10.73
2023-03-17T07:31:45.328Z,10.52
2023-03-17T07:34:12.703Z,9.42
2023-03-17T07:36:39.648Z,9.13
2023-03-17T07:39:11.499Z,9.68
2023-03-17T07:41:38.391Z,10.24
2023-03-17T07:44:05.061Z,11.02
2023-03-17T07:46:31.838Z,11.32
2023-03-17T07:48:58.361Z,11.35
2023-03-17T07:51:27.743Z,11.13
2023-03-17T07:53:55.808Z,11.35
2023-03-17T07:56:22.212Z,11.26
2023-03-17T07:58:48.705Z,12.01
2023-03-17T08:01:15.327Z,10.84
2023-03-17T08:03:41.985Z,11.10
2023-03-17T08:06:08.824Z,11.10
2023-03-17T08:08:35.941Z,11.37
2023-03-17T08:11:04.481Z,11.51
2023-03-17T08:13:32.711Z,11.58
2023-03-17T08:15:59.658Z,11.51
2023-03-17T08:18:26.782Z,11.63
2023-03-17T08:20:53.201Z,10.80
2023-03-17T08:23:20.594Z,10.64
2023-03-17T08:25:47.881Z,11.50
2023-03-17T08:28:15.325Z,11.91
2023-03-17T08:30:42.999Z,10.51
2023-03-17T08:33:09.865Z,11.15
2023-03-17T08:35:37.350Z,10.69
2023-03-17T08:38:04.515Z,10.63
2023-03-17T08:40:31.495Z,10.77
2023-03-17T08:42:58.154Z,11.42
2023-03-17T08:45:24.820Z,11.90
2023-03-17T08:47:51.550Z,11.27
2023-03-17T08:50:21.340Z,11.75
2023-03-17T08:52:48.976Z,10.92
2023-03-17T08:55:16.482Z,11.15
2023-03-17T08:57:44.574Z,11.95
2023-03-17T09:00:14.042Z,12.08
2023-03-17T09:02:43.303Z,11.81
2023-03-17T09:05:12.684Z,11.72
2023-03-17T09:07:39.549Z,11.47
2023-03-17T09:10:07.760Z,11.29
2023-03-17T09:12:34.435Z,11.22
2023-03-17T09:15:01.812Z,10.83
2023-03-17T09:17:28.264Z,11.36
2023-03-17T09:19:54.649Z,11.81
2023-03-17T09:22:21.142Z,11.86
2023-03-17T09:24:47.580Z,12.18
2023-03-17T09:27:14.120Z,12.39
2023-03-17T09:29:42.063Z,12.43
2023-03-17T09:32:08.764Z,12.01
2023-03-17T09:34:35.807Z,11.75
2023-03-17T09:37:02.218Z,12.00
2023-03-17T09:39:28.701Z,12.04
2023-03-17T09:42:27.581Z,11.87
2023-03-17T09:45:12.238Z,11.88
2023-03-17T09:48:04.700Z,11.88
2023-03-17T09:50:38.691Z,11.47
2023-03-17T09:53:10.246Z,11.73
2023-03-17T09:55:37.974Z,11.83
2023-03-17T09:58:04.451Z,12.13
2023-03-17T10:00:31.228Z,12.18
2023-03-17T10:02:58.831Z,12.32
2023-03-17T10:05:28.253Z,12.02
2023-03-17T10:08:27.062Z,11.91
2023-03-17T10:11:02.039Z,12.07
2023-03-17T10:14:08.410Z,12.47
2023-03-17T10:16:46.813Z,12.16
2023-03-17T10:19:23.761Z,12.50
2023-03-17T10:21:58.038Z,12.49
2023-03-17T10:24:26.977Z,12.72
2023-03-17T10:26:57.820Z,12.75
2023-03-17T10:29:24.387Z,13.08
2023-03-17T10:31:53.238Z,13.15
2023-03-17T10:34:26.025Z,13.19
2023-03-17T10:37:01.525Z,13.16
2023-03-17T10:39:32.524Z,13.10
2023-03-17T10:42:09.129Z,13.29
2023-03-17T10:45:12.388Z,13.24
2023-03-17T10:47:44.728Z,13.40
2023-03-17T10:50:23.556Z,13.60
2023-03-17T10:53:07.638Z,13.80
2023-03-17T10:55:42.484Z,13.93
2023-03-17T10:58:18.144Z,13.89
2023-03-17T11:01:02.540Z,13.52
2023-03-17T11:03:34.042Z,13.73
2023-03-17T11:06:05.216Z,13.87
2023-03-17T11:08:41.654Z,14.01
2023-03-17T11:11:22.530Z,14.11
2023-03-17T11:13:49.062Z,13.91
2023-03-17T11:16:23.419Z,14.20
2023-03-17T11:18:57.969Z,14.28
2023-03-17T11:21:35.367Z,14.26
2023-03-17T11:24:12.183Z,14.16
2023-03-17T11:26:56.387Z,14.18
2023-03-17T11:29:44.754Z,14.49
2023-03-17T11:32:28.204Z,14.73
2023-03-17T11:35:20.813Z,14.63
2023-03-17T11:38:19.108Z,14.86
2023-03-17T11:41:04.828Z,14.78
2023-03-17T11:43:46.727Z,14.63
2023-03-17T11:46:19.206Z,14.77
2023-03-17T11:49:10.943Z,14.96
2023-03-17T11:52:05.000Z,14.95
2023-03-17T11:54:50.621Z,15.27
2023-03-17T11:57:28.230Z,15.29
2023-03-17T12:00:02.039Z,15.21
2023-03-17T12:02:38.440Z,15.32
2023-03-17T12:05:13.300Z,15.15
2023-03-17T12:07:53.128Z,15.62
2023-03-17T12:10:28.759Z,15.25
2023-03-17T12:13:01.249Z,15.51
2023-03-17T12:15:34.673Z,15.50
2023-03-17T12:18:10.830Z,15.60
2023-03-17T12:20:50.904Z,15.64
2023-03-17T12:23:36.540Z,15.99
2023-03-17T12:26:16.338Z,16.17
2023-03-17T12:28:56.183Z,16.20
2023-03-17T12:31:28.869Z,16.46
2023-03-17T12:33:55.322Z,16.47
2023-03-17T12:36:22.668Z,16.27
2023-03-17T12:39:05.496Z,16.15
2023-03-17T12:42:01.542Z,16.07
2023-03-17T12:44:46.670Z,16.17
2023-03-17T12:47:30.521Z,16.48
2023-03-17T12:50:09.390Z,15.96
2023-03-17T12:52:57.251Z,16.25
2023-03-17T12:55:27.906Z,16.02
2023-03-17T12:58:03.555Z,15.92
2023-03-17T13:00:33.346Z,15.85
2023-03-17T13:03:21.580Z,15.78
2023-03-17T13:05:52.771Z,15.83
2023-03-17T13:08:29.571Z,16.10
2023-03-17T13:11:14.464Z,16.33
2023-03-17T13:13:49.367Z,16.17
2023-03-17T13:16:34.377Z,16.15
2023-03-17T13:19:14.935Z,16.17
2023-03-17T13:21:49.007Z,16.10
2023-03-17T13:24:15.366Z,15.95
2023-03-17T13:27:01.630Z,16.13
2023-03-17T13:29:34.691Z,16.41
2023-03-17T13:32:19.365Z,16.35
2023-03-17T13:34:49.920Z,16.27
2023-03-17T13:37:23.963Z,16.49
2023-03-17T13:40:21.274Z,16.58
2023-03-17T13:43:15.358Z,16.55
2023-03-17T13:45:44.573Z,16.66
2023-03-17T13:48:29.337Z,16.73
2023-03-17T13:51:14.522Z,16.68
2023-03-17T13:53:49.555Z,16.75
2023-03-17T13:56:46.780Z,16.95
2023-03-17T13:59:18.222Z,16.65
2023-03-17T14:01:57.603Z,16.64
2023-03-17T14:04:30.942Z,16.72
2023-03-17T14:07:04.700Z,16.83
2023-03-17T14:09:42.262Z,16.68
2023-03-17T14:12:21.916Z,16.79
2023-03-17T14:14:52.789Z,16.87
2023-03-17T14:17:25.153Z,16.85
2023-03-17T14:20:22.613Z,17.12
2023-03-17T14:22:55.123Z,16.85
2023-03-17T14:25:30.896Z,16.89
2023-03-17T14:27:58.229Z,16.71
2023-03-17T14:30:30.511Z,16.70
2023-03-17T14:33:12.560Z,16.48
2023-03-17T14:35:43.015Z,16.42
2023-03-17T14:38:26.711Z,16.64
2023-03-17T14:41:07.670Z,16.70
2023-03-17T14:43:36.124Z,16.84
2023-03-17T14:46:04.947Z,16.62
2023-03-17T14:48:37.035Z,16.84
2023-03-17T14:51:21.612Z,16.95
2023-03-17T14:53:48.413Z,16.91
2023-03-17T14:56:15.710Z,16.78
2023-03-17T14:58:44.785Z,16.83
2023-03-17T15:01:20.143Z,16.64
2023-03-17T15:04:07.244Z,16.76
2023-03-17T15:06:37.448Z,16.59
2023-03-17T15:09:18.079Z,16.58
2023-03-17T15:11:45.347Z,16.34
2023-03-17T15:14:21.091Z,16.43
2023-03-17T15:16:50.557Z,16.42
2023-03-17T15:19:24.666Z,16.61
2023-03-17T15:21:52.082Z,16.59
2023-03-17T15:24:26.214Z,16.74
2023-03-17T15:27:16.831Z,16.73
2023-03-17T15:29:44.272Z,16.86
2023-03-17T15:32:13.752Z,16.72
2023-03-17T15:34:40.397Z,16.75
2023-03-17T15:37:15.904Z,16.88
2023-03-17T15:39:42.500Z,16.91
2023-03-17T15:42:08.942Z,16.81
2023-03-17T15:44:35.410Z,16.30
2023-03-17T15:47:02.555Z,16.32
2023-03-17T15:49:30.004Z,16.37
2023-03-17T15:51:56.535Z,16.37
2023-03-17T15:54:22.965Z,16.30
2023-03-17T15:56:49.437Z,16.13
2023-03-17T15:59:16.120Z,15.98
2023-03-17T16:01:42.559Z,16.07
2023-03-17T16:04:09.163Z,15.78
2023-03-17T16:06:36.007Z,15.61
2023-03-17T16:09:02.522Z,15.47
2023-03-17T16:11:31.150Z,15.57
2023-03-17T16:13:59.694Z,15.47
2023-03-17T16:16:36.744Z,15.25
2023-03-17T16:19:05.710Z,15.29
2023-03-17T16:21:32.381Z,15.25
2023-03-17T16:23:59.029Z,15.16
2023-03-17T16:26:25.481Z,14.99
2023-03-17T16:28:51.978Z,15.00
2023-03-17T16:31:30.136Z,15.01
2023-03-17T16:33:57.043Z,14.93
2023-03-17T16:36:25.301Z,14.79
2023-03-17T16:38:51.982Z,14.76
2023-03-17T16:41:24.558Z,14.71
2023-03-17T16:43:55.319Z,14.67
2023-03-17T16:46:22.574Z,14.62
2023-03-17T16:48:50.548Z,14.56
2023-03-17T16:51:17.349Z,14.44
2023-03-17T16:53:44.263Z,14.21
2023-03-17T16:56:20.051Z,14.20
2023-03-17T16:58:47.243Z,14.08
2023-03-17T17:01:17.842Z,13.92
2023-03-17T17:03:44.455Z,13.94
2023-03-17T17:06:12.316Z,13.84
2023-03-17T17:08:38.810Z,13.68
2023-03-17T17:11:05.359Z,13.63
2023-03-17T17:13:31.818Z,13.50
2023-03-17T17:15:59.151Z,13.26
2023-03-17T17:18:25.964Z,13.25
2023-03-17T17:20:54.142Z,13.16
2023-03-17T17:23:23.131Z,13.15
2023-03-17T17:25:50.508Z,13.12
2023-03-17T17:28:22.309Z,12.95
2023-03-17T17:30:50.660Z,12.94
2023-03-17T17:33:17.974Z,12.92
2023-03-17T17:35:45.334Z,12.89
2023-03-17T17:38:28.827Z,12.83
2023-03-17T17:40:57.361Z,12.80
2023-03-17T17:43:24.960Z,12.86
2023-03-17T17:45:52.449Z,12.81
2023-03-17T17:48:24.616Z,12.76
2023-03-17T17:50:52.958Z,12.68
2023-03-17T17:53:19.896Z,12.74
2023-03-17T17:55:47.840Z,12.69
2023-03-17T17:58:24.621Z,12.64
2023-03-17T18:00:53.823Z,12.59
2023-03-17T18:03:24.584Z,12.56
2023-03-17T18:05:53.272Z,12.51
2023-03-17T18:08:19.842Z,12.51
2023-03-17T18:10:46.371Z,12.50
2023-03-17T18:13:12.769Z,12.41
2023-03-17T18:15:39.194Z,12.43
2023-03-17T18:18:06.037Z,12.43
2023-03-17T18:20:35.218Z,12.39
2023-03-17T18:23:02.261Z,12.36
2023-03-17T18:25:29.330Z,12.25
2023-03-17T18:27:56.277Z,12.17
2023-03-17T18:30:28.611Z,12.12
2023-03-17T18:33:02.647Z,12.06
2023-03-17T18:35:29.646Z,11.96
2023-03-17T18:37:57.729Z,11.87
2023-03-17T18:40:25.550Z,11.81
2023-03-17T18:42:51.952Z,11.80
2023-03-17T18:45:18.535Z,11.89
2023-03-17T18:47:45.235Z,11.89
2023-03-17T18:50:13.733Z,11.90
2023-03-17T18:52:41.100Z,11.91
2023-03-17T18:55:12.185Z,11.86
2023-03-17T18:57:38.939Z,11.85
2023-03-17T19:00:06.123Z,11.94
2023-03-17T19:02:33.304Z,11.87
2023-03-17T19:05:01.011Z,11.94
2023-03-17T19:07:27.726Z,11.98
2023-03-17T19:09:54.387Z,11.86
2023-03-17T19:12:20.881Z,11.87
2023-03-17T19:14:47.882Z,11.89
2023-03-17T19:17:14.305Z,11.81
2023-03-17T19:19:41.428Z,11.83
2023-03-17T19:22:08.298Z,11.76
2023-03-17T19:24:36.052Z,11.70
2023-03-17T19:27:02.629Z,11.73
2023-03-17T19:29:29.224Z,11.67
2023-03-17T19:31:55.687Z,11.70
2023-03-17T19:34:23.009Z,11.61
2023-03-17T19:36:49.436Z,11.53
2023-03-17T19:39:16.556Z,11.44
2023-03-17T19:41:43.286Z,11.48
2023-03-17T19:44:09.911Z,11.45
2023-03-17T19:46:37.095Z,11.37
2023-03-17T19:49:04.864Z,11.33
2023-03-17T19:51:32.860Z,11.32
2023-03-17T19:54:00.153Z,11.24
2023-03-17T19:56:27.884Z,11.13
2023-03-17T19:58:54.966Z,11.12
2023-03-17T20:01:22.830Z,11.12
2023-03-17T20:03:49.546Z,11.09
2023-03-17T20:06:16.202Z,11.00
2023-03-17T20:08:43.264Z,10.88
2023-03-17T20:11:11.513Z,10.84
2023-03-17T20:13:38.455Z,10.82
2023-03-17T20:16:06.374Z,10.82
2023-03-17T20:18:33.109Z,10.82
2023-03-17T20:21:00.277Z,10.81
2023-03-17T20:23:27.286Z,10.67
2023-03-17T20:25:53.906Z,10.66
2023-03-17T20:28:24.086Z,10.55
2023-03-17T20:30:50.695Z,10.56
2023-03-17T20:33:17.240Z,10.61
2023-03-17T20:35:48.457Z,10.64
2023-03-17T20:38:15.989Z,10.65
2023-03-17T20:40:42.988Z,10.63
2023-03-17T20:43:09.491Z,10.60
2023-03-17T20:45:37.019Z,10.60
2023-03-17T20:48:05.016Z,10.63
2023-03-17T20:50:33.516Z,10.62
2023-03-17T20:53:00.433Z,10.61
2023-03-17T20:55:27.431Z,10.60
2023-03-17T20:57:53.878Z,10.70
2023-03-17T21:00:22.006Z,10.66
2023-03-17T21:02:50.275Z,10.61
2023-03-17T21:05:23.138Z,10.61
2023-03-17T21:07:50.585Z,10.50
2023-03-17T21:10:17.987Z,10.43
2023-03-17T21:12:45.088Z,10.43
2023-03-17T21:15:12.935Z,10.36
2023-03-17T21:17:40.093Z,10.29
2023-03-17T21:20:09.549Z,10.20
2023-03-17T21:22:36.913Z,10.15
2023-03-17T21:25:08.608Z,10.14
2023-03-17T21:27:38.757Z,10.14
2023-03-17T21:30:12.113Z,10.13
2023-03-17T21:32:40.344Z,10.14
2023-03-17T21:35:07.880Z,10.21
2023-03-17T21:37:35.076Z,10.25
2023-03-17T21:40:01.503Z,10.20
2023-03-17T21:42:28.323Z,10.11
2023-03-17T21:44:55.181Z,10.08
2023-03-17T21:47:21.644Z,10.07
2023-03-17T21:49:48.194Z,9.92
2023-03-17T21:52:15.106Z,9.91
2023-03-17T21:54:42.073Z,9.91
2023-03-17T21:57:12.161Z,9.96
2023-03-17T21:59:40.060Z,9.92
2023-03-17T22:02:06.541Z,9.80
2023-03-17T22:04:32.961Z,9.77
2023-03-17T22:06:59.445Z,9.77
2023-03-17T22:09:26.316Z,9.74
2023-03-17T22:11:52.851Z,9.68
2023-03-17T22:14:20.701Z,9.73
2023-03-17T22:16:48.723Z,9.62
2023-03-17T22:19:15.706Z,9.59
2023-03-17T22:21:42.806Z,9.43
2023-03-17T22:24:10.060Z,9.36
2023-03-17T22:26:36.805Z,9.36
2023-03-17T22:29:03.773Z,9.33
2023-03-17T22:31:30.584Z,9.31
2023-03-17T22:33:59.145Z,9.27
2023-03-17T22:36:26.096Z,9.18
2023-03-17T22:38:53.472Z,9.20
2023-03-17T22:41:22.355Z,9.16
2023-03-17T22:43:49.011Z,9.10
2023-03-17T22:46:15.868Z,9.14
2023-03-17T22:48:42.878Z,9.06
2023-03-17T22:51:12.733Z,8.91
2023-03-17T22:53:40.308Z,8.77
2023-03-17T22:56:08.368Z,8.66
2023-03-17T22:58:35.258Z,8.68
2023-03-17T23:01:02.608Z,8.70
2023-03-17T23:03:30.125Z,8.63
2023-03-17T23:05:59.614Z,8.69
2023-03-17T23:08:27.849Z,8.67
2023-03-17T23:10:54.784Z,8.72
2023-03-17T23:13:22.324Z,8.74
2023-03-17T23:15:48.747Z,8.64
2023-03-17T23:18:15.477Z,8.61
2023-03-17T23:20:42.775Z,8.49
2023-03-17T23:23:11.633Z,8.47
2023-03-17T23:25:38.615Z,8.44
2023-03-17T23:28:06.698Z,8.33
2023-03-17T23:30:34.514Z,8.27
2023-03-17T23:33:01.525Z,8.27
2023-03-17T23:35:29.019Z,8.19
2023-03-17T23:37:55.493Z,8.07
2023-03-17T23:40:23.564Z,8.02
2023-03-17T23:42:50.174Z,7.95
2023-03-17T23:45:18.054Z,7.83
2023-03-17T23:47:46.622Z,7.83
2023-03-17T23:50:14.526Z,7.79
2023-03-17T23:52:42.444Z,7.92
2023-03-17T23:55:10.371Z,8.01
2023-03-17T23:57:37.797Z,8.09
